KCDN/CDN METAR and TAF weather

Enter ICAO airport designator
Station Type Date Time Source
KCDN METAR 2022/08/16 18:55 UTC NOAA

KCDN 161855Z AUTO 36008KT 10SM SCT017 OVC026 24/20 A2994 RMK AO2


Station Type Date Time Source
KCDN Decoded METAR 2022/08/16 18:55 UTC NOAA

Station name not available
Aug 16, 2022 - 02:55 PM EDT / 2022.08.16 1855 UTC
Wind: from the N (360 degrees) at 9 MPH (8 KT):0
Visibility: 10 mile(s):0
Sky conditions: overcast
Temperature: 75 F (24 C)
Dew Point: 68 F (20 C)
Relative Humidity: 78%
Pressure (altimeter): 29.94 in. Hg (1013 hPa)
ob: KCDN 161855Z AUTO 36008KT 10SM SCT017 OVC026 24/20 A2994 RMK AO2
cycle: 19

Station Type Date Time Source
KCDN TAF UTC NOAA

Error!

Example: see airport list